Weather at Boram Thayer Apartments Heliport

Public forecast

Using degrees Celsius for public forecast. Weather courtesy of forecast.io.

Closest aviation weather report (METAR) to Boram Thayer Apartments Heliport

Closest report is Gimhae International Airport, 6.8 nm (12.6 km) WNW. Retrieved 2020/09/19 08:00 UTC (42 minutes ago):

RKPK 190800Z 20007KT CAVOK 25/13 Q1014

Closest aviation forecast (TAF) to Boram Thayer Apartments Heliport

Closest forecast is Gimhae International Airport, 6.8 nm (12.6 km) WNW. Retrieved 2020/09/19 06:00 UTC (3 hours ago):

TAF RKPK 190500Z 1906/2012 21006KT 9999 SCT030 BKN200 TN14/1921Z TX27/2006Z BECMG 1911/1912 33006KT BECMG 2003/2004 21006KT